Barton, North Dakota
Current Conditions -  °F | °C
As of 12:55 PM on Thursday 30 Oct 2014 (Local Time) from KRUG Reporting Station
Scattered Clouds Scattered Clouds  
Wind Chill: 23°   Ceiling: Unl
Heat Index: 32°   Visibility: 10mi
Dew Point: 27°   Wind: 13mph
Humidity: 80%   Direction: 20°NNE
Pressure: 30.42"   Gusts: NA
Location:  48.5496°N, 100.255°W
Report Text: KRUG 301755Z AUTO 02011KT 10SM SCT017 00/M03 A3042 RMK AO2
Loading
Personal Weather Stations






























Interactive Weather Map
Tropical Storm Tracking
New forecast layout! Learn more

10-Day Weather Forecast

Advertisements
Track Severe Weather on mobile